sensor_id;sensor_type;location;lat;lon;timestamp;temperature;humidity
4699;DHT22;33708;49.466;11.176;2023-04-01T00:02:19;8.50;99.90
4699;DHT22;33708;49.466;11.176;2023-04-01T00:04:45;8.60;99.90
4699;DHT22;33708;49.466;11.176;2023-04-01T00:07:10;8.80;99.10
4699;DHT22;33708;49.466;11.176;2023-04-01T00:09:36;8.90;95.70
4699;DHT22;33708;49.466;11.176;2023-04-01T00:12:02;8.90;91.20
4699;DHT22;33708;49.466;11.176;2023-04-01T00:14:28;9.00;91.30
4699;DHT22;33708;49.466;11.176;2023-04-01T00:16:54;8.90;87.70
4699;DHT22;33708;49.466;11.176;2023-04-01T00:19:20;9.10;88.90
4699;DHT22;33708;49.466;11.176;2023-04-01T00:21:46;9.20;86.50
4699;DHT22;33708;49.466;11.176;2023-04-01T00:24:12;9.30;78.90
4699;DHT22;33708;49.466;11.176;2023-04-01T00:26:37;9.30;77.50
4699;DHT22;33708;49.466;11.176;2023-04-01T00:29:03;9.30;73.30
4699;DHT22;33708;49.466;11.176;2023-04-01T00:31:28;9.40;73.90
4699;DHT22;33708;49.466;11.176;2023-04-01T00:33:55;9.40;64.30
4699;DHT22;33708;49.466;11.176;2023-04-01T00:36:21;9.40;62.10
4699;DHT22;33708;49.466;11.176;2023-04-01T00:38:47;9.50;60.50
4699;DHT22;33708;49.466;11.176;2023-04-01T00:41:13;9.40;56.90
4699;DHT22;33708;49.466;11.176;2023-04-01T00:43:41;9.40;52.60
4699;DHT22;33708;49.466;11.176;2023-04-01T00:46:07;9.50;51.40
4699;DHT22;33708;49.466;11.176;2023-04-01T00:48:39;9.60;51.70
4699;DHT22;33708;49.466;11.176;2023-04-01T00:51:15;9.60;51.80
4699;DHT22;33708;49.466;11.176;2023-04-01T00:53:47;9.70;48.70
4699;DHT22;33708;49.466;11.176;2023-04-01T00:56:16;9.70;46.40
4699;DHT22;33708;49.466;11.176;2023-04-01T00:58:47;9.70;45.90
4699;DHT22;33708;49.466;11.176;2023-04-01T01:01:13;9.70;43.40
4699;DHT22;33708;49.466;11.176;2023-04-01T01:03:39;9.70;41.70
4699;DHT22;33708;49.466;11.176;2023-04-01T01:09:10;9.70;40.20
4699;DHT22;33708;49.466;11.176;2023-04-01T01:17:35;9.70;36.50
4699;DHT22;33708;49.466;11.176;2023-04-01T01:20:42;9.80;39.50
4699;DHT22;33708;49.466;11.176;2023-04-01T01:31:48;9.80;30.30
4699;DHT22;33708;49.466;11.176;2023-04-01T01:34:36;9.80;28.20
4699;DHT22;33708;49.466;11.176;2023-04-01T01:37:11;9.90;33.40
4699;DHT22;33708;49.466;11.176;2023-04-01T01:39:39;9.90;29.00
4699;DHT22;33708;49.466;11.176;2023-04-01T01:42:09;9.80;28.20
4699;DHT22;33708;49.466;11.176;2023-04-01T01:44:37;9.80;30.50
4699;DHT22;33708;49.466;11.176;2023-04-01T01:47:03;9.80;27.60
4699;DHT22;33708;49.466;11.176;2023-04-01T01:49:32;9.80;26.40
4699;DHT22;33708;49.466;11.176;2023-04-01T01:51:59;9.90;25.40
4699;DHT22;33708;49.466;11.176;2023-04-01T01:54:25;9.90;26.20
4699;DHT22;33708;49.466;11.176;2023-04-01T01:56:55;9.90;26.70
4699;DHT22;33708;49.466;11.176;2023-04-01T01:59:24;9.80;23.60
4699;DHT22;33708;49.466;11.176;2023-04-01T02:01:51;9.70;22.60
4699;DHT22;33708;49.466;11.176;2023-04-01T02:04:19;9.70;24.90
4699;DHT22;33708;49.466;11.176;2023-04-01T02:07:02;9.70;22.10
4699;DHT22;33708;49.466;11.176;2023-04-01T02:09:27;9.70;23.20
4699;DHT22;33708;49.466;11.176;2023-04-01T02:12:03;9.80;23.70
4699;DHT22;33708;49.466;11.176;2023-04-01T02:15:06;9.80;22.60
4699;DHT22;33708;49.466;11.176;2023-04-01T02:17:34;9.80;20.50
4699;DHT22;33708;49.466;11.176;2023-04-01T02:20:30;9.90;20.20
4699;DHT22;33708;49.466;11.176;2023-04-01T02:22:56;9.80;21.50
4699;DHT22;33708;49.466;11.176;2023-04-01T02:25:28;9.80;21.50
4699;DHT22;33708;49.466;11.176;2023-04-01T02:27:56;9.80;20.70
4699;DHT22;33708;49.466;11.176;2023-04-01T02:30:23;9.80;19.50
4699;DHT22;33708;49.466;11.176;2023-04-01T02:32:51;9.70;17.30
4699;DHT22;33708;49.466;11.176;2023-04-01T02:35:17;9.80;17.50
4699;DHT22;33708;49.466;11.176;2023-04-01T02:37:44;9.80;19.00
4699;DHT22;33708;49.466;11.176;2023-04-01T02:40:13;9.80;18.50
4699;DHT22;33708;49.466;11.176;2023-04-01T02:42:39;9.80;18.10
4699;DHT22;33708;49.466;11.176;2023-04-01T02:45:05;9.80;17.00
4699;DHT22;33708;49.466;11.176;2023-04-01T02:47:31;9.80;16.10
4699;DHT22;33708;49.466;11.176;2023-04-01T02:49:57;9.70;15.70
4699;DHT22;33708;49.466;11.176;2023-04-01T02:52:26;9.80;15.10
4699;DHT22;33708;49.466;11.176;2023-04-01T02:54:52;9.80;14.40
4699;DHT22;33708;49.466;11.176;2023-04-01T02:57:18;9.80;13.90
4699;DHT22;33708;49.466;11.176;2023-04-01T02:59:44;9.80;14.30
4699;DHT22;33708;49.466;11.176;2023-04-01T03:02:09;9.80;15.30
4699;DHT22;33708;49.466;11.176;2023-04-01T03:04:35;9.80;14.10
4699;DHT22;33708;49.466;11.176;2023-04-01T03:07:01;9.70;13.00
4699;DHT22;33708;49.466;11.176;2023-04-01T03:09:27;9.80;15.10
4699;DHT22;33708;49.466;11.176;2023-04-01T03:11:54;9.70;11.70
4699;DHT22;33708;49.466;11.176;2023-04-01T03:14:19;9.80;13.80
4699;DHT22;33708;49.466;11.176;2023-04-01T03:16:45;9.80;12.90
4699;DHT22;33708;49.466;11.176;2023-04-01T03:19:11;9.80;11.90
4699;DHT22;33708;49.466;11.176;2023-04-01T03:21:36;9.80;11.70
4699;DHT22;33708;49.466;11.176;2023-04-01T03:24:02;9.70;9.70
4699;DHT22;33708;49.466;11.176;2023-04-01T03:26:27;9.70;10.40
4699;DHT22;33708;49.466;11.176;2023-04-01T03:28:54;9.80;11.40
4699;DHT22;33708;49.466;11.176;2023-04-01T03:31:20;9.80;10.60
4699;DHT22;33708;49.466;11.176;2023-04-01T03:33:46;9.80;11.30
4699;DHT22;33708;49.466;11.176;2023-04-01T03:36:11;9.80;11.30
4699;DHT22;33708;49.466;11.176;2023-04-01T03:38:41;9.80;12.40
4699;DHT22;33708;49.466;11.176;2023-04-01T03:41:07;9.80;11.60
4699;DHT22;33708;49.466;11.176;2023-04-01T03:43:36;9.70;10.90
4699;DHT22;33708;49.466;11.176;2023-04-01T03:46:02;9.70;8.20
4699;DHT22;33708;49.466;11.176;2023-04-01T03:48:27;9.70;8.30
4699;DHT22;33708;49.466;11.176;2023-04-01T03:50:53;9.70;11.20
4699;DHT22;33708;49.466;11.176;2023-04-01T03:53:18;9.80;11.50
4699;DHT22;33708;49.466;11.176;2023-04-01T03:55:45;9.70;11.00
4699;DHT22;33708;49.466;11.176;2023-04-01T03:58:10;9.70;10.90
4699;DHT22;33708;49.466;11.176;2023-04-01T04:00:36;9.70;10.50
4699;DHT22;33708;49.466;11.176;2023-04-01T04:03:02;9.70;12.20
4699;DHT22;33708;49.466;11.176;2023-04-01T04:05:28;9.70;9.50
4699;DHT22;33708;49.466;11.176;2023-04-01T04:07:54;9.70;9.60
4699;DHT22;33708;49.466;11.176;2023-04-01T04:10:20;9.60;8.20
4699;DHT22;33708;49.466;11.176;2023-04-01T04:12:45;9.60;7.40
4699;DHT22;33708;49.466;11.176;2023-04-01T04:15:12;9.60;8.90
4699;DHT22;33708;49.466;11.176;2023-04-01T04:17:37;9.70;6.50
4699;DHT22;33708;49.466;11.176;2023-04-01T04:20:04;9.50;7.10
4699;DHT22;33708;49.466;11.176;2023-04-01T04:22:29;9.60;7.10
4699;DHT22;33708;49.466;11.176;2023-04-01T04:24:55;9.60;7.30
4699;DHT22;33708;49.466;11.176;2023-04-01T04:27:21;9.60;7.60
4699;DHT22;33708;49.466;11.176;2023-04-01T04:29:46;9.60;4.70
4699;DHT22;33708;49.466;11.176;2023-04-01T04:32:12;9.70;6.60
4699;DHT22;33708;49.466;11.176;2023-04-01T04:34:37;9.70;5.20
4699;DHT22;33708;49.466;11.176;2023-04-01T04:37:03;9.70;6.40
4699;DHT22;33708;49.466;11.176;2023-04-01T04:39:29;9.70;15.90
4699;DHT22;33708;49.466;11.176;2023-04-01T04:41:55;9.70;4.00
4699;DHT22;33708;49.466;11.176;2023-04-01T04:44:20;9.70;4.10
4699;DHT22;33708;49.466;11.176;2023-04-01T04:46:46;9.70;3.40
4699;DHT22;33708;49.466;11.176;2023-04-01T04:49:11;9.70;3.10
4699;DHT22;33708;49.466;11.176;2023-04-01T04:51:37;9.60;3.60
4699;DHT22;33708;49.466;11.176;2023-04-01T04:54:03;9.60;3.70
4699;DHT22;33708;49.466;11.176;2023-04-01T04:56:29;9.50;6.60
4699;DHT22;33708;49.466;11.176;2023-04-01T04:58:56;9.50;6.50
4699;DHT22;33708;49.466;11.176;2023-04-01T05:01:22;9.50;6.60
4699;DHT22;33708;49.466;11.176;2023-04-01T05:03:48;9.50;10.90
4699;DHT22;33708;49.466;11.176;2023-04-01T05:06:15;9.60;11.30
4699;DHT22;33708;49.466;11.176;2023-04-01T05:08:42;9.50;9.80
4699;DHT22;33708;49.466;11.176;2023-04-01T05:11:13;9.50;11.30
4699;DHT22;33708;49.466;11.176;2023-04-01T05:13:40;9.50;12.30
4699;DHT22;33708;49.466;11.176;2023-04-01T05:16:14;9.50;13.20
4699;DHT22;33708;49.466;11.176;2023-04-01T05:18:41;9.60;12.60
4699;DHT22;33708;49.466;11.176;2023-04-01T05:21:09;9.60;13.20
4699;DHT22;33708;49.466;11.176;2023-04-01T05:23:35;9.60;11.60
4699;DHT22;33708;49.466;11.176;2023-04-01T05:26:14;9.70;10.30
4699;DHT22;33708;49.466;11.176;2023-04-01T05:28:40;9.60;11.00
4699;DHT22;33708;49.466;11.176;2023-04-01T05:31:06;9.60;10.40
4699;DHT22;33708;49.466;11.176;2023-04-01T05:33:32;9.60;11.30
4699;DHT22;33708;49.466;11.176;2023-04-01T05:36:15;9.60;12.00
4699;DHT22;33708;49.466;11.176;2023-04-01T05:38:41;9.70;10.30
4699;DHT22;33708;49.466;11.176;2023-04-01T05:41:08;9.90;11.40
4699;DHT22;33708;49.466;11.176;2023-04-01T05:43:37;10.00;11.10
4699;DHT22;33708;49.466;11.176;2023-04-01T05:46:03;9.90;12.00
4699;DHT22;33708;49.466;11.176;2023-04-01T05:48:29;10.00;10.60
4699;DHT22;33708;49.466;11.176;2023-04-01T05:50:54;9.70;7.00
4699;DHT22;33708;49.466;11.176;2023-04-01T05:53:20;9.70;7.80
4699;DHT22;33708;49.466;11.176;2023-04-01T05:55:45;9.70;8.50
4699;DHT22;33708;49.466;11.176;2023-04-01T05:58:11;9.80;8.30
4699;DHT22;33708;49.466;11.176;2023-04-01T06:00:38;9.80;8.50
4699;DHT22;33708;49.466;11.176;2023-04-01T06:03:04;10.00;8.50
4699;DHT22;33708;49.466;11.176;2023-04-01T06:05:35;10.10;8.30
4699;DHT22;33708;49.466;11.176;2023-04-01T06:08:24;10.10;6.00
4699;DHT22;33708;49.466;11.176;2023-04-01T06:19:24;10.70;6.60
4699;DHT22;33708;49.466;11.176;2023-04-01T06:43:58;11.60;1.00
4699;DHT22;33708;49.466;11.176;2023-04-01T06:46:53;12.30;1.90
4699;DHT22;33708;49.466;11.176;2023-04-01T06:49:49;12.10;1.00
4699;DHT22;33708;49.466;11.176;2023-04-01T06:57:54;12.40;4.10
4699;DHT22;33708;49.466;11.176;2023-04-01T07:00:27;12.30;1.50
4699;DHT22;33708;49.466;11.176;2023-04-01T07:05:39;12.50;1.00
4699;DHT22;33708;49.466;11.176;2023-04-01T07:08:09;12.60;1.00
4699;DHT22;33708;49.466;11.176;2023-04-01T07:10:50;12.70;1.00
4699;DHT22;33708;49.466;11.176;2023-04-01T07:13:41;13.30;1.00
4699;DHT22;33708;49.466;11.176;2023-04-01T07:16:37;12.90;1.00
4699;DHT22;33708;49.466;11.176;2023-04-01T07:21:48;12.50;1.00
4699;DHT22;33708;49.466;11.176;2023-04-01T07:24:37;12.40;1.00
4699;DHT22;33708;49.466;11.176;2023-04-01T07:27:08;12.20;1.00
4699;DHT22;33708;49.466;11.176;2023-04-01T07:29:35;12.40;1.00
4699;DHT22;33708;49.466;11.176;2023-04-01T07:34:47;12.80;1.00
4699;DHT22;33708;49.466;11.176;2023-04-01T07:43:04;12.70;1.00
4699;DHT22;33708;49.466;11.176;2023-04-01T07:49:19;12.90;1.00
4699;DHT22;33708;49.466;11.176;2023-04-01T07:51:35;12.70;1.00
4699;DHT22;33708;49.466;11.176;2023-04-01T07:54:11;12.50;1.00
4699;DHT22;33708;49.466;11.176;2023-04-01T07:56:51;12.30;1.00
4699;DHT22;33708;49.466;11.176;2023-04-01T08:02:21;12.20;1.00
4699;DHT22;33708;49.466;11.176;2023-04-01T08:13:44;12.70;1.00
4699;DHT22;33708;49.466;11.176;2023-04-01T08:22:03;12.40;1.00
4699;DHT22;33708;49.466;11.176;2023-04-01T08:24:43;12.50;1.00
4699;DHT22;33708;49.466;11.176;2023-04-01T08:27:28;12.70;1.00
4699;DHT22;33708;49.466;11.176;2023-04-01T08:35:33;12.20;1.00
4699;DHT22;33708;49.466;11.176;2023-04-01T08:38:15;12.30;1.00
4699;DHT22;33708;49.466;11.176;2023-04-01T08:41:41;12.20;1.00
4699;DHT22;33708;49.466;11.176;2023-04-01T08:47:03;12.10;1.00
4699;DHT22;33708;49.466;11.176;2023-04-01T09:00:46;11.90;1.00
4699;DHT22;33708;49.466;11.176;2023-04-01T09:03:44;11.70;1.00
4699;DHT22;33708;49.466;11.176;2023-04-01T09:14:48;11.90;1.00
4699;DHT22;33708;49.466;11.176;2023-04-01T09:37:33;12.60;1.00
4699;DHT22;33708;49.466;11.176;2023-04-01T09:43:06;12.70;1.00
4699;DHT22;33708;49.466;11.176;2023-04-01T10:10:51;11.90;1.00
4699;DHT22;33708;49.466;11.176;2023-04-01T10:13:51;11.80;1.00
4699;DHT22;33708;49.466;11.176;2023-04-01T10:36:10;12.10;1.00
4699;DHT22;33708;49.466;11.176;2023-04-01T10:38:52;12.40;1.00
4699;DHT22;33708;49.466;11.176;2023-04-01T10:49:52;12.70;1.00
4699;DHT22;33708;49.466;11.176;2023-04-01T10:52:44;12.90;1.00
4699;DHT22;33708;49.466;11.176;2023-04-01T10:55:35;12.90;1.00
4699;DHT22;33708;49.466;11.176;2023-04-01T10:58:33;12.40;1.00
4699;DHT22;33708;49.466;11.176;2023-04-01T11:15:31;12.10;13.20
4699;DHT22;33708;49.466;11.176;2023-04-01T11:20:59;12.00;14.70
4699;DHT22;33708;49.466;11.176;2023-04-01T11:34:48;11.80;18.80
4699;DHT22;33708;49.466;11.176;2023-04-01T11:37:34;12.00;19.80
4699;DHT22;33708;49.466;11.176;2023-04-01T11:41:15;11.60;27.70
4699;DHT22;33708;49.466;11.176;2023-04-01T11:43:32;11.40;26.50
4699;DHT22;33708;49.466;11.176;2023-04-01T11:46:20;11.30;27.60
4699;DHT22;33708;49.466;11.176;2023-04-01T11:52:06;11.30;31.10
4699;DHT22;33708;49.466;11.176;2023-04-01T11:57:34;11.90;33.70
4699;DHT22;33708;49.466;11.176;2023-04-01T12:00:14;11.70;29.30
4699;DHT22;33708;49.466;11.176;2023-04-01T12:03:05;11.80;31.30
4699;DHT22;33708;49.466;11.176;2023-04-01T12:05:54;11.80;27.10
4699;DHT22;33708;49.466;11.176;2023-04-01T12:14:27;11.80;29.40
4699;DHT22;33708;49.466;11.176;2023-04-01T12:20:22;11.90;29.60
4699;DHT22;33708;49.466;11.176;2023-04-01T12:26:06;12.20;32.90
4699;DHT22;33708;49.466;11.176;2023-04-01T12:31:24;12.30;30.00
4699;DHT22;33708;49.466;11.176;2023-04-01T12:37:26;12.30;27.20
4699;DHT22;33708;49.466;11.176;2023-04-01T12:40:00;12.30;24.90
4699;DHT22;33708;49.466;11.176;2023-04-01T12:48:32;11.50;25.60
4699;DHT22;33708;49.466;11.176;2023-04-01T12:57:03;11.30;36.00
4699;DHT22;33708;49.466;11.176;2023-04-01T13:18:28;11.80;32.10
4699;DHT22;33708;49.466;11.176;2023-04-01T13:28:40;12.20;28.40
4699;DHT22;33708;49.466;11.176;2023-04-01T13:31:30;11.90;27.20
4699;DHT22;33708;49.466;11.176;2023-04-01T13:34:20;12.10;27.20
4699;DHT22;33708;49.466;11.176;2023-04-01T13:36:56;12.00;25.90
4699;DHT22;33708;49.466;11.176;2023-04-01T13:42:26;11.70;23.20
4699;DHT22;33708;49.466;11.176;2023-04-01T13:45:00;12.00;25.60
4699;DHT22;33708;49.466;11.176;2023-04-01T13:50:26;11.70;24.90
4699;DHT22;33708;49.466;11.176;2023-04-01T13:53:04;12.00;25.20
4699;DHT22;33708;49.466;11.176;2023-04-01T14:01:22;11.80;24.90
4699;DHT22;33708;49.466;11.176;2023-04-01T14:11:56;11.60;25.60
4699;DHT22;33708;49.466;11.176;2023-04-01T14:20:01;11.50;24.10
4699;DHT22;33708;49.466;11.176;2023-04-01T14:31:04;11.50;22.00
4699;DHT22;33708;49.466;11.176;2023-04-01T14:33:43;11.50;19.40
4699;DHT22;33708;49.466;11.176;2023-04-01T14:39:22;11.10;13.80
4699;DHT22;33708;49.466;11.176;2023-04-01T14:50:25;11.20;22.80
4699;DHT22;33708;49.466;11.176;2023-04-01T14:55:34;11.00;18.90
4699;DHT22;33708;49.466;11.176;2023-04-01T14:58:14;11.00;23.50
4699;DHT22;33708;49.466;11.176;2023-04-01T15:30:56;11.70;26.50
4699;DHT22;33708;49.466;11.176;2023-04-01T15:36:41;11.00;26.00
4699;DHT22;33708;49.466;11.176;2023-04-01T15:41:58;11.00;21.00
4699;DHT22;33708;49.466;11.176;2023-04-01T15:55:20;10.80;21.70
4699;DHT22;33708;49.466;11.176;2023-04-01T15:57:55;10.80;21.90
4699;DHT22;33708;49.466;11.176;2023-04-01T16:08:55;10.50;22.00
4699;DHT22;33708;49.466;11.176;2023-04-01T16:14:33;10.80;19.20
4699;DHT22;33708;49.466;11.176;2023-04-01T16:19:50;10.70;18.70
4699;DHT22;33708;49.466;11.176;2023-04-01T16:32:41;10.50;29.10
4699;DHT22;33708;49.466;11.176;2023-04-01T16:43:11;10.50;20.80
4699;DHT22;33708;49.466;11.176;2023-04-01T16:48:12;10.40;17.80
4699;DHT22;33708;49.466;11.176;2023-04-01T16:50:54;10.40;18.50
4699;DHT22;33708;49.466;11.176;2023-04-01T16:53:36;10.40;18.50
4699;DHT22;33708;49.466;11.176;2023-04-01T16:56:04;10.30;17.00
4699;DHT22;33708;49.466;11.176;2023-04-01T17:01:19;10.50;18.90
4699;DHT22;33708;49.466;11.176;2023-04-01T17:03:52;10.40;18.00
4699;DHT22;33708;49.466;11.176;2023-04-01T17:17:49;10.30;23.30
4699;DHT22;33708;49.466;11.176;2023-04-01T17:20:40;10.20;22.30
4699;DHT22;33708;49.466;11.176;2023-04-01T17:23:13;10.20;26.90
4699;DHT22;33708;49.466;11.176;2023-04-01T17:31:39;10.10;39.90
4699;DHT22;33708;49.466;11.176;2023-04-01T17:37:33;10.10;24.20
4699;DHT22;33708;49.466;11.176;2023-04-01T17:42:46;10.10;24.10
4699;DHT22;33708;49.466;11.176;2023-04-01T17:45:26;10.20;24.70
4699;DHT22;33708;49.466;11.176;2023-04-01T17:54:00;10.30;25.60
4699;DHT22;33708;49.466;11.176;2023-04-01T18:07:48;10.30;20.10
4699;DHT22;33708;49.466;11.176;2023-04-01T18:10:28;10.30;19.70
4699;DHT22;33708;49.466;11.176;2023-04-01T18:15:46;10.20;20.30
4699;DHT22;33708;49.466;11.176;2023-04-01T18:26:32;10.10;17.40
4699;DHT22;33708;49.466;11.176;2023-04-01T18:34:57;10.20;18.20
4699;DHT22;33708;49.466;11.176;2023-04-01T18:40:32;10.10;17.30
4699;DHT22;33708;49.466;11.176;2023-04-01T18:51:44;10.20;20.30
4699;DHT22;33708;49.466;11.176;2023-04-01T18:54:21;10.20;20.30
4699;DHT22;33708;49.466;11.176;2023-04-01T18:56:49;10.10;17.60
4699;DHT22;33708;49.466;11.176;2023-04-01T19:07:49;10.20;20.80
4699;DHT22;33708;49.466;11.176;2023-04-01T19:12:49;10.20;19.00
4699;DHT22;33708;49.466;11.176;2023-04-01T19:21:01;10.20;19.60
4699;DHT22;33708;49.466;11.176;2023-04-01T19:26:11;10.00;19.50
4699;DHT22;33708;49.466;11.176;2023-04-01T19:29:16;10.10;20.80
4699;DHT22;33708;49.466;11.176;2023-04-01T19:34:42;10.30;21.90
4699;DHT22;33708;49.466;11.176;2023-04-01T19:37:40;10.30;22.60
4699;DHT22;33708;49.466;11.176;2023-04-01T19:45:47;10.20;20.60
4699;DHT22;33708;49.466;11.176;2023-04-01T19:50:59;10.20;18.60
4699;DHT22;33708;49.466;11.176;2023-04-01T19:53:39;10.10;19.00
4699;DHT22;33708;49.466;11.176;2023-04-01T19:56:18;10.20;21.20
4699;DHT22;33708;49.466;11.176;2023-04-01T20:01:44;10.10;21.90
4699;DHT22;33708;49.466;11.176;2023-04-01T20:04:25;10.10;20.00
4699;DHT22;33708;49.466;11.176;2023-04-01T20:06:59;10.00;18.50
4699;DHT22;33708;49.466;11.176;2023-04-01T20:10:29;10.00;19.30
4699;DHT22;33708;49.466;11.176;2023-04-01T20:12:52;10.10;20.70
4699;DHT22;33708;49.466;11.176;2023-04-01T20:18:02;10.10;18.30
4699;DHT22;33708;49.466;11.176;2023-04-01T20:20:30;10.10;20.60
4699;DHT22;33708;49.466;11.176;2023-04-01T20:26:32;10.00;20.00
4699;DHT22;33708;49.466;11.176;2023-04-01T20:42:02;10.10;18.90
4699;DHT22;33708;49.466;11.176;2023-04-01T20:44:52;10.20;18.80
4699;DHT22;33708;49.466;11.176;2023-04-01T20:50:31;10.10;18.20
4699;DHT22;33708;49.466;11.176;2023-04-01T20:56:36;10.10;22.30
4699;DHT22;33708;49.466;11.176;2023-04-01T21:10:34;10.10;27.00
4699;DHT22;33708;49.466;11.176;2023-04-01T21:12:54;10.10;30.90
4699;DHT22;33708;49.466;11.176;2023-04-01T21:16:00;10.10;29.90
4699;DHT22;33708;49.466;11.176;2023-04-01T21:19:23;10.00;30.00
4699;DHT22;33708;49.466;11.176;2023-04-01T21:27:09;10.00;33.60
4699;DHT22;33708;49.466;11.176;2023-04-01T21:35:58;9.90;30.00
4699;DHT22;33708;49.466;11.176;2023-04-01T21:52:38;10.00;28.50
4699;DHT22;33708;49.466;11.176;2023-04-01T22:13:57;10.00;28.20
4699;DHT22;33708;49.466;11.176;2023-04-01T22:16:32;9.90;27.80
4699;DHT22;33708;49.466;11.176;2023-04-01T22:22:19;9.90;24.20
4699;DHT22;33708;49.466;11.176;2023-04-01T22:30:11;9.90;26.40
4699;DHT22;33708;49.466;11.176;2023-04-01T22:33:12;9.90;24.80
4699;DHT22;33708;49.466;11.176;2023-04-01T22:40:53;9.90;23.40
4699;DHT22;33708;49.466;11.176;2023-04-01T22:43:25;9.80;24.00
4699;DHT22;33708;49.466;11.176;2023-04-01T22:46:09;9.80;24.50
4699;DHT22;33708;49.466;11.176;2023-04-01T22:52:31;9.80;35.40
4699;DHT22;33708;49.466;11.176;2023-04-01T22:54:51;9.80;32.00
4699;DHT22;33708;49.466;11.176;2023-04-01T23:00:32;9.70;30.20
4699;DHT22;33708;49.466;11.176;2023-04-01T23:05:47;9.70;32.10
4699;DHT22;33708;49.466;11.176;2023-04-01T23:11:23;9.80;37.50
4699;DHT22;33708;49.466;11.176;2023-04-01T23:19:32;9.70;39.90
4699;DHT22;33708;49.466;11.176;2023-04-01T23:22:21;9.70;39.80
4699;DHT22;33708;49.466;11.176;2023-04-01T23:24:55;9.70;41.50
4699;DHT22;33708;49.466;11.176;2023-04-01T23:27:31;9.80;45.30
4699;DHT22;33708;49.466;11.176;2023-04-01T23:30:00;9.80;41.10
4699;DHT22;33708;49.466;11.176;2023-04-01T23:32:26;9.90;43.80
4699;DHT22;33708;49.466;11.176;2023-04-01T23:34:56;9.90;46.30
4699;DHT22;33708;49.466;11.176;2023-04-01T23:37:23;9.80;42.30
4699;DHT22;33708;49.466;11.176;2023-04-01T23:42:33;9.70;41.10
4699;DHT22;33708;49.466;11.176;2023-04-01T23:45:15;9.70;42.20
4699;DHT22;33708;49.466;11.176;2023-04-01T23:47:43;9.70;42.80
4699;DHT22;33708;49.466;11.176;2023-04-01T23:50:24;9.80;46.10
4699;DHT22;33708;49.466;11.176;2023-04-01T23:53:11;9.80;45.00
4699;DHT22;33708;49.466;11.176;2023-04-01T23:55:40;9.80;40.30
4699;DHT22;33708;49.466;11.176;2023-04-01T23:58:18;9.80;44.00
